Terminal Aerodrome Forecast
Issued by NWS Chicago, IL

Home | Current Version | Previous Version | Text Only | Print | Product List | Glossary Off
Versions: 1 2 3 4 5 6 7 8 9 10 11 12 13 14 15 16 17 18 19 20 21 22 23 24

000
FTUS43 KLOT 181735
TAFRFD
TAF
KRFD 181735Z 1818/1918 04013G20KT 3SM -SNDZ BR BKN015 OVC020
     FM182000 03011G18KT 1 1/2SM -SN OVC010
     FM182300 35011G18KT 1SM -SN BR OVC007
     FM190500 34011KT P6SM BKN015
     FM191300 34010KT P6SM SCT030=

USA.gov is the U.S. government's official web portal to all federal, state and local government web resources and services.